sensor_id;sensor_type;location;lat;lon;timestamp;P1;durP1;ratioP1;P2;durP2;ratioP2
34984;SDS011;21190;58.750;17.004;2023-11-18T00:02:14;8.20;;;3.85;;
34984;SDS011;21190;58.750;17.004;2023-11-18T00:04:42;8.45;;;3.65;;
34984;SDS011;21190;58.750;17.004;2023-11-18T00:07:09;6.25;;;3.17;;
34984;SDS011;21190;58.750;17.004;2023-11-18T00:09:36;9.68;;;4.18;;
34984;SDS011;21190;58.750;17.004;2023-11-18T00:12:03;7.60;;;2.97;;
34984;SDS011;21190;58.750;17.004;2023-11-18T00:14:30;7.60;;;3.38;;
34984;SDS011;21190;58.750;17.004;2023-11-18T00:16:57;11.82;;;3.28;;
34984;SDS011;21190;58.750;17.004;2023-11-18T00:19:25;7.53;;;3.13;;
34984;SDS011;21190;58.750;17.004;2023-11-18T00:21:52;6.93;;;2.80;;
34984;SDS011;21190;58.750;17.004;2023-11-18T00:24:19;7.32;;;3.60;;
34984;SDS011;21190;58.750;17.004;2023-11-18T00:26:47;8.63;;;3.17;;
34984;SDS011;21190;58.750;17.004;2023-11-18T00:29:14;10.50;;;3.35;;
34984;SDS011;21190;58.750;17.004;2023-11-18T00:31:41;6.40;;;3.22;;
34984;SDS011;21190;58.750;17.004;2023-11-18T00:34:08;9.13;;;3.10;;
34984;SDS011;21190;58.750;17.004;2023-11-18T00:36:37;7.53;;;3.08;;
34984;SDS011;21190;58.750;17.004;2023-11-18T00:39:04;7.13;;;3.17;;
34984;SDS011;21190;58.750;17.004;2023-11-18T00:41:31;8.98;;;4.45;;
34984;SDS011;21190;58.750;17.004;2023-11-18T00:43:58;6.18;;;3.15;;
34984;SDS011;21190;58.750;17.004;2023-11-18T00:46:25;6.50;;;3.42;;
34984;SDS011;21190;58.750;17.004;2023-11-18T00:48:52;7.18;;;3.35;;
34984;SDS011;21190;58.750;17.004;2023-11-18T00:51:19;6.95;;;3.50;;
34984;SDS011;21190;58.750;17.004;2023-11-18T00:53:46;7.93;;;3.00;;
34984;SDS011;21190;58.750;17.004;2023-11-18T00:56:15;6.72;;;3.65;;
34984;SDS011;21190;58.750;17.004;2023-11-18T00:58:44;7.60;;;4.00;;
34984;SDS011;21190;58.750;17.004;2023-11-18T01:01:11;8.32;;;3.72;;
34984;SDS011;21190;58.750;17.004;2023-11-18T01:03:38;10.20;;;4.10;;
34984;SDS011;21190;58.750;17.004;2023-11-18T01:06:05;7.28;;;3.42;;
34984;SDS011;21190;58.750;17.004;2023-11-18T01:08:32;8.85;;;3.92;;
34984;SDS011;21190;58.750;17.004;2023-11-18T01:10:59;10.32;;;4.65;;
34984;SDS011;21190;58.750;17.004;2023-11-18T01:13:27;7.38;;;3.53;;
34984;SDS011;21190;58.750;17.004;2023-11-18T01:15:54;10.43;;;3.92;;
34984;SDS011;21190;58.750;17.004;2023-11-18T01:18:21;8.70;;;4.35;;
34984;SDS011;21190;58.750;17.004;2023-11-18T01:20:48;9.35;;;4.70;;
34984;SDS011;21190;58.750;17.004;2023-11-18T01:23:15;8.93;;;4.18;;
34984;SDS011;21190;58.750;17.004;2023-11-18T01:25:42;6.88;;;3.55;;
34984;SDS011;21190;58.750;17.004;2023-11-18T01:28:10;7.78;;;3.58;;
34984;SDS011;21190;58.750;17.004;2023-11-18T01:30:37;7.95;;;3.80;;
34984;SDS011;21190;58.750;17.004;2023-11-18T01:33:04;10.02;;;4.13;;
34984;SDS011;21190;58.750;17.004;2023-11-18T01:35:31;8.15;;;4.07;;
34984;SDS011;21190;58.750;17.004;2023-11-18T01:37:58;11.40;;;4.20;;
34984;SDS011;21190;58.750;17.004;2023-11-18T01:40:25;8.45;;;3.90;;
34984;SDS011;21190;58.750;17.004;2023-11-18T01:42:52;9.73;;;4.32;;
34984;SDS011;21190;58.750;17.004;2023-11-18T01:45:19;9.88;;;4.68;;
34984;SDS011;21190;58.750;17.004;2023-11-18T01:47:46;13.40;;;5.10;;
34984;SDS011;21190;58.750;17.004;2023-11-18T01:50:16;11.68;;;4.60;;
34984;SDS011;21190;58.750;17.004;2023-11-18T01:52:44;8.98;;;4.70;;
34984;SDS011;21190;58.750;17.004;2023-11-18T01:55:14;11.98;;;5.60;;
34984;SDS011;21190;58.750;17.004;2023-11-18T01:57:41;14.60;;;5.45;;
34984;SDS011;21190;58.750;17.004;2023-11-18T02:00:11;12.05;;;5.25;;
34984;SDS011;21190;58.750;17.004;2023-11-18T02:02:39;11.65;;;4.97;;
34984;SDS011;21190;58.750;17.004;2023-11-18T02:05:07;16.17;;;6.32;;
34984;SDS011;21190;58.750;17.004;2023-11-18T02:07:34;13.38;;;5.90;;
34984;SDS011;21190;58.750;17.004;2023-11-18T02:10:04;13.63;;;5.97;;
34984;SDS011;21190;58.750;17.004;2023-11-18T02:15:21;17.80;;;6.45;;
34984;SDS011;21190;58.750;17.004;2023-11-18T02:17:50;20.60;;;8.00;;
34984;SDS011;21190;58.750;17.004;2023-11-18T02:20:20;18.20;;;7.18;;
34984;SDS011;21190;58.750;17.004;2023-11-18T02:22:47;21.23;;;7.22;;
34984;SDS011;21190;58.750;17.004;2023-11-18T02:25:15;16.85;;;7.00;;
34984;SDS011;21190;58.750;17.004;2023-11-18T02:27:45;22.23;;;7.18;;
34984;SDS011;21190;58.750;17.004;2023-11-18T02:30:12;17.25;;;7.45;;
34984;SDS011;21190;58.750;17.004;2023-11-18T02:32:45;26.08;;;7.95;;
34984;SDS011;21190;58.750;17.004;2023-11-18T02:37:49;34.03;;;7.68;;
34984;SDS011;21190;58.750;17.004;2023-11-18T02:40:39;33.40;;;7.35;;
34984;SDS011;21190;58.750;17.004;2023-11-18T02:43:10;29.00;;;7.93;;
34984;SDS011;21190;58.750;17.004;2023-11-18T02:45:37;38.22;;;9.10;;
34984;SDS011;21190;58.750;17.004;2023-11-18T02:48:07;38.67;;;8.65;;
34984;SDS011;21190;58.750;17.004;2023-11-18T02:50:35;19.33;;;8.00;;
34984;SDS011;21190;58.750;17.004;2023-11-18T02:53:03;23.45;;;7.80;;
34984;SDS011;21190;58.750;17.004;2023-11-18T02:55:30;21.73;;;8.23;;
34984;SDS011;21190;58.750;17.004;2023-11-18T02:57:57;19.77;;;7.68;;
34984;SDS011;21190;58.750;17.004;2023-11-18T03:00:24;20.45;;;7.65;;
34984;SDS011;21190;58.750;17.004;2023-11-18T03:02:51;17.80;;;7.68;;
34984;SDS011;21190;58.750;17.004;2023-11-18T03:05:19;18.67;;;7.35;;
34984;SDS011;21190;58.750;17.004;2023-11-18T03:07:47;14.93;;;7.38;;
34984;SDS011;21190;58.750;17.004;2023-11-18T03:10:20;21.30;;;9.20;;
34984;SDS011;21190;58.750;17.004;2023-11-18T03:12:48;18.30;;;7.97;;
34984;SDS011;21190;58.750;17.004;2023-11-18T03:15:16;16.13;;;7.43;;
34984;SDS011;21190;58.750;17.004;2023-11-18T03:17:44;19.15;;;8.48;;
34984;SDS011;21190;58.750;17.004;2023-11-18T03:20:12;15.07;;;7.53;;
34984;SDS011;21190;58.750;17.004;2023-11-18T03:22:43;15.98;;;7.15;;
34984;SDS011;21190;58.750;17.004;2023-11-18T03:25:14;13.85;;;7.72;;
34984;SDS011;21190;58.750;17.004;2023-11-18T03:27:41;15.00;;;6.82;;
34984;SDS011;21190;58.750;17.004;2023-11-18T03:30:09;15.63;;;6.90;;
34984;SDS011;21190;58.750;17.004;2023-11-18T03:32:36;18.27;;;7.38;;
34984;SDS011;21190;58.750;17.004;2023-11-18T03:35:05;21.73;;;7.47;;
34984;SDS011;21190;58.750;17.004;2023-11-18T03:37:36;14.65;;;7.00;;
34984;SDS011;21190;58.750;17.004;2023-11-18T03:40:07;13.55;;;6.78;;
34984;SDS011;21190;58.750;17.004;2023-11-18T03:42:35;14.77;;;7.00;;
34984;SDS011;21190;58.750;17.004;2023-11-18T03:45:03;13.80;;;7.05;;
34984;SDS011;21190;58.750;17.004;2023-11-18T03:47:31;14.90;;;6.72;;
34984;SDS011;21190;58.750;17.004;2023-11-18T03:50:00;12.30;;;6.55;;
34984;SDS011;21190;58.750;17.004;2023-11-18T03:52:27;13.43;;;6.70;;
34984;SDS011;21190;58.750;17.004;2023-11-18T03:54:55;11.90;;;6.78;;
34984;SDS011;21190;58.750;17.004;2023-11-18T03:57:22;11.38;;;6.35;;
34984;SDS011;21190;58.750;17.004;2023-11-18T03:59:49;13.45;;;6.55;;
34984;SDS011;21190;58.750;17.004;2023-11-18T04:02:16;14.15;;;6.30;;
34984;SDS011;21190;58.750;17.004;2023-11-18T04:04:44;13.18;;;6.25;;
34984;SDS011;21190;58.750;17.004;2023-11-18T04:07:11;11.60;;;6.45;;
34984;SDS011;21190;58.750;17.004;2023-11-18T04:09:38;10.98;;;5.90;;
34984;SDS011;21190;58.750;17.004;2023-11-18T04:12:07;13.25;;;6.00;;
34984;SDS011;21190;58.750;17.004;2023-11-18T04:14:34;11.45;;;5.78;;
34984;SDS011;21190;58.750;17.004;2023-11-18T04:17:01;11.13;;;5.75;;
34984;SDS011;21190;58.750;17.004;2023-11-18T04:19:29;10.70;;;5.65;;
34984;SDS011;21190;58.750;17.004;2023-11-18T04:21:56;12.10;;;5.68;;
34984;SDS011;21190;58.750;17.004;2023-11-18T04:24:23;10.93;;;5.65;;
34984;SDS011;21190;58.750;17.004;2023-11-18T04:26:50;10.65;;;5.63;;
34984;SDS011;21190;58.750;17.004;2023-11-18T04:29:17;14.63;;;6.57;;
34984;SDS011;21190;58.750;17.004;2023-11-18T04:31:44;12.10;;;5.57;;
34984;SDS011;21190;58.750;17.004;2023-11-18T04:34:11;10.75;;;5.70;;
34984;SDS011;21190;58.750;17.004;2023-11-18T04:36:42;13.80;;;6.20;;
34984;SDS011;21190;58.750;17.004;2023-11-18T04:39:09;8.10;;;4.82;;
34984;SDS011;21190;58.750;17.004;2023-11-18T04:41:42;10.73;;;5.53;;
34984;SDS011;21190;58.750;17.004;2023-11-18T04:44:10;12.73;;;6.82;;
34984;SDS011;21190;58.750;17.004;2023-11-18T04:46:36;10.38;;;5.07;;
34984;SDS011;21190;58.750;17.004;2023-11-18T04:49:03;12.57;;;6.15;;
34984;SDS011;21190;58.750;17.004;2023-11-18T04:51:32;10.10;;;5.15;;
34984;SDS011;21190;58.750;17.004;2023-11-18T04:53:59;8.93;;;5.50;;
34984;SDS011;21190;58.750;17.004;2023-11-18T04:56:26;10.63;;;5.88;;
34984;SDS011;21190;58.750;17.004;2023-11-18T04:58:53;15.63;;;7.18;;
34984;SDS011;21190;58.750;17.004;2023-11-18T05:01:20;12.27;;;5.90;;
34984;SDS011;21190;58.750;17.004;2023-11-18T05:03:47;9.93;;;5.57;;
34984;SDS011;21190;58.750;17.004;2023-11-18T05:06:15;9.95;;;5.90;;
34984;SDS011;21190;58.750;17.004;2023-11-18T05:08:41;13.95;;;6.30;;
34984;SDS011;21190;58.750;17.004;2023-11-18T05:11:09;13.13;;;6.35;;
34984;SDS011;21190;58.750;17.004;2023-11-18T05:13:36;9.02;;;5.55;;
34984;SDS011;21190;58.750;17.004;2023-11-18T05:16:04;11.70;;;5.63;;
34984;SDS011;21190;58.750;17.004;2023-11-18T05:18:32;12.23;;;6.25;;
34984;SDS011;21190;58.750;17.004;2023-11-18T05:21:03;12.43;;;6.78;;
34984;SDS011;21190;58.750;17.004;2023-11-18T05:23:34;12.60;;;6.35;;
34984;SDS011;21190;58.750;17.004;2023-11-18T05:26:04;10.75;;;6.05;;
34984;SDS011;21190;58.750;17.004;2023-11-18T05:28:32;12.73;;;7.38;;
34984;SDS011;21190;58.750;17.004;2023-11-18T05:30:59;12.30;;;6.53;;
34984;SDS011;21190;58.750;17.004;2023-11-18T05:33:28;13.65;;;6.45;;
34984;SDS011;21190;58.750;17.004;2023-11-18T05:35:56;10.40;;;6.30;;
34984;SDS011;21190;58.750;17.004;2023-11-18T05:38:23;13.10;;;6.38;;
34984;SDS011;21190;58.750;17.004;2023-11-18T05:40:54;9.77;;;5.38;;
34984;SDS011;21190;58.750;17.004;2023-11-18T05:43:26;9.55;;;5.45;;
34984;SDS011;21190;58.750;17.004;2023-11-18T05:46:07;10.50;;;5.68;;
34984;SDS011;21190;58.750;17.004;2023-11-18T05:48:52;8.25;;;4.93;;
34984;SDS011;21190;58.750;17.004;2023-11-18T05:51:23;11.18;;;5.18;;
34984;SDS011;21190;58.750;17.004;2023-11-18T05:53:52;13.57;;;6.57;;
34984;SDS011;21190;58.750;17.004;2023-11-18T05:56:19;10.40;;;5.80;;
34984;SDS011;21190;58.750;17.004;2023-11-18T05:58:50;8.95;;;4.97;;
34984;SDS011;21190;58.750;17.004;2023-11-18T06:01:19;7.10;;;4.45;;
34984;SDS011;21190;58.750;17.004;2023-11-18T06:03:47;8.48;;;5.07;;
34984;SDS011;21190;58.750;17.004;2023-11-18T06:06:15;12.77;;;5.93;;
34984;SDS011;21190;58.750;17.004;2023-11-18T06:08:49;8.50;;;4.82;;
34984;SDS011;21190;58.750;17.004;2023-11-18T06:11:16;11.93;;;5.68;;
34984;SDS011;21190;58.750;17.004;2023-11-18T06:13:47;11.60;;;5.47;;
34984;SDS011;21190;58.750;17.004;2023-11-18T06:16:19;8.82;;;4.63;;
34984;SDS011;21190;58.750;17.004;2023-11-18T06:18:48;10.27;;;6.00;;
34984;SDS011;21190;58.750;17.004;2023-11-18T06:21:20;9.68;;;4.95;;
34984;SDS011;21190;58.750;17.004;2023-11-18T06:23:54;13.68;;;5.70;;
34984;SDS011;21190;58.750;17.004;2023-11-18T06:26:22;9.85;;;5.07;;
34984;SDS011;21190;58.750;17.004;2023-11-18T06:28:50;11.30;;;5.75;;
34984;SDS011;21190;58.750;17.004;2023-11-18T06:31:17;13.18;;;5.78;;
34984;SDS011;21190;58.750;17.004;2023-11-18T06:33:45;11.88;;;5.47;;
34984;SDS011;21190;58.750;17.004;2023-11-18T06:38:41;12.82;;;6.82;;
34984;SDS011;21190;58.750;17.004;2023-11-18T06:41:08;14.57;;;6.13;;
34984;SDS011;21190;58.750;17.004;2023-11-18T06:43:39;12.00;;;5.63;;
34984;SDS011;21190;58.750;17.004;2023-11-18T06:46:24;10.23;;;5.30;;
34984;SDS011;21190;58.750;17.004;2023-11-18T06:48:53;14.77;;;6.22;;
34984;SDS011;21190;58.750;17.004;2023-11-18T06:51:21;12.20;;;5.63;;
34984;SDS011;21190;58.750;17.004;2023-11-18T06:53:51;8.93;;;4.95;;
34984;SDS011;21190;58.750;17.004;2023-11-18T06:56:21;10.20;;;5.32;;
34984;SDS011;21190;58.750;17.004;2023-11-18T06:58:51;9.98;;;4.75;;
34984;SDS011;21190;58.750;17.004;2023-11-18T07:01:18;12.10;;;4.95;;
34984;SDS011;21190;58.750;17.004;2023-11-18T07:03:45;8.45;;;4.43;;
34984;SDS011;21190;58.750;17.004;2023-11-18T07:06:19;8.95;;;4.53;;
34984;SDS011;21190;58.750;17.004;2023-11-18T07:08:49;7.13;;;3.90;;
34984;SDS011;21190;58.750;17.004;2023-11-18T07:11:16;7.70;;;3.50;;
34984;SDS011;21190;58.750;17.004;2023-11-18T07:13:44;6.82;;;3.42;;
34984;SDS011;21190;58.750;17.004;2023-11-18T07:16:12;6.65;;;3.22;;
34984;SDS011;21190;58.750;17.004;2023-11-18T07:18:41;9.15;;;3.75;;
34984;SDS011;21190;58.750;17.004;2023-11-18T07:21:11;3.80;;;2.40;;
34984;SDS011;21190;58.750;17.004;2023-11-18T07:23:38;4.10;;;2.00;;
34984;SDS011;21190;58.750;17.004;2023-11-18T07:26:05;4.28;;;2.42;;
34984;SDS011;21190;58.750;17.004;2023-11-18T07:28:32;5.72;;;2.40;;
34984;SDS011;21190;58.750;17.004;2023-11-18T07:30:59;6.82;;;2.45;;
34984;SDS011;21190;58.750;17.004;2023-11-18T07:33:31;5.63;;;2.75;;
34984;SDS011;21190;58.750;17.004;2023-11-18T07:35:59;6.35;;;2.67;;
34984;SDS011;21190;58.750;17.004;2023-11-18T07:38:26;7.38;;;3.38;;
34984;SDS011;21190;58.750;17.004;2023-11-18T07:40:53;5.68;;;3.13;;
34984;SDS011;21190;58.750;17.004;2023-11-18T07:43:23;9.55;;;3.90;;
34984;SDS011;21190;58.750;17.004;2023-11-18T07:45:50;7.43;;;3.83;;
34984;SDS011;21190;58.750;17.004;2023-11-18T07:48:19;6.05;;;3.20;;
34984;SDS011;21190;58.750;17.004;2023-11-18T07:50:47;7.60;;;3.28;;
34984;SDS011;21190;58.750;17.004;2023-11-18T07:53:14;8.10;;;3.42;;
34984;SDS011;21190;58.750;17.004;2023-11-18T07:55:42;7.18;;;3.38;;
34984;SDS011;21190;58.750;17.004;2023-11-18T07:58:09;5.70;;;3.40;;
34984;SDS011;21190;58.750;17.004;2023-11-18T08:00:40;5.78;;;2.97;;
34984;SDS011;21190;58.750;17.004;2023-11-18T08:03:15;5.38;;;2.83;;
34984;SDS011;21190;58.750;17.004;2023-11-18T08:05:43;8.02;;;3.05;;
34984;SDS011;21190;58.750;17.004;2023-11-18T08:08:11;5.50;;;2.83;;
34984;SDS011;21190;58.750;17.004;2023-11-18T08:10:40;4.65;;;2.65;;
34984;SDS011;21190;58.750;17.004;2023-11-18T08:13:08;9.10;;;2.40;;
34984;SDS011;21190;58.750;17.004;2023-11-18T08:15:40;6.75;;;3.10;;
34984;SDS011;21190;58.750;17.004;2023-11-18T08:18:08;3.92;;;2.35;;
34984;SDS011;21190;58.750;17.004;2023-11-18T08:20:38;4.00;;;2.30;;
34984;SDS011;21190;58.750;17.004;2023-11-18T08:23:05;6.03;;;2.55;;
34984;SDS011;21190;58.750;17.004;2023-11-18T08:25:34;3.70;;;2.03;;
34984;SDS011;21190;58.750;17.004;2023-11-18T08:28:03;4.75;;;2.60;;
34984;SDS011;21190;58.750;17.004;2023-11-18T08:30:31;4.82;;;2.53;;
34984;SDS011;21190;58.750;17.004;2023-11-18T08:33:00;5.75;;;2.63;;
34984;SDS011;21190;58.750;17.004;2023-11-18T08:35:32;4.25;;;2.30;;
34984;SDS011;21190;58.750;17.004;2023-11-18T08:37:59;3.38;;;1.92;;
34984;SDS011;21190;58.750;17.004;2023-11-18T08:40:28;3.92;;;2.33;;
34984;SDS011;21190;58.750;17.004;2023-11-18T08:42:55;5.88;;;2.70;;
34984;SDS011;21190;58.750;17.004;2023-11-18T08:45:23;4.43;;;2.42;;
34984;SDS011;21190;58.750;17.004;2023-11-18T08:47:58;3.95;;;2.38;;
34984;SDS011;21190;58.750;17.004;2023-11-18T08:50:27;4.07;;;2.00;;
34984;SDS011;21190;58.750;17.004;2023-11-18T08:52:55;3.55;;;2.33;;
34984;SDS011;21190;58.750;17.004;2023-11-18T08:55:29;3.42;;;1.67;;
34984;SDS011;21190;58.750;17.004;2023-11-18T08:58:09;6.15;;;2.13;;
34984;SDS011;21190;58.750;17.004;2023-11-18T09:00:56;2.97;;;1.60;;
34984;SDS011;21190;58.750;17.004;2023-11-18T09:03:40;2.38;;;1.55;;
34984;SDS011;21190;58.750;17.004;2023-11-18T09:06:10;3.55;;;1.40;;
34984;SDS011;21190;58.750;17.004;2023-11-18T09:08:55;3.23;;;1.10;;
34984;SDS011;21190;58.750;17.004;2023-11-18T09:11:24;2.60;;;1.23;;
34984;SDS011;21190;58.750;17.004;2023-11-18T09:13:55;2.60;;;1.40;;
34984;SDS011;21190;58.750;17.004;2023-11-18T09:16:27;3.00;;;1.20;;
34984;SDS011;21190;58.750;17.004;2023-11-18T09:18:59;2.17;;;1.30;;
34984;SDS011;21190;58.750;17.004;2023-11-18T09:21:29;2.00;;;1.20;;
34984;SDS011;21190;58.750;17.004;2023-11-18T09:24:02;1.85;;;1.35;;
34984;SDS011;21190;58.750;17.004;2023-11-18T09:26:31;4.30;;;1.60;;
34984;SDS011;21190;58.750;17.004;2023-11-18T09:28:58;2.13;;;1.15;;
34984;SDS011;21190;58.750;17.004;2023-11-18T09:31:28;1.48;;;1.00;;
34984;SDS011;21190;58.750;17.004;2023-11-18T09:33:55;1.77;;;1.00;;
34984;SDS011;21190;58.750;17.004;2023-11-18T09:36:24;1.60;;;1.05;;
34984;SDS011;21190;58.750;17.004;2023-11-18T09:38:55;1.90;;;1.27;;
34984;SDS011;21190;58.750;17.004;2023-11-18T09:41:23;2.40;;;0.90;;
34984;SDS011;21190;58.750;17.004;2023-11-18T09:43:54;3.58;;;1.00;;
34984;SDS011;21190;58.750;17.004;2023-11-18T09:46:24;2.97;;;1.02;;
34984;SDS011;21190;58.750;17.004;2023-11-18T09:52:02;1.10;;;0.90;;
34984;SDS011;21190;58.750;17.004;2023-11-18T09:57:31;1.80;;;1.00;;
34984;SDS011;21190;58.750;17.004;2023-11-18T10:00:09;3.33;;;1.13;;
34984;SDS011;21190;58.750;17.004;2023-11-18T10:02:53;1.10;;;0.90;;
34984;SDS011;21190;58.750;17.004;2023-11-18T10:05:23;2.47;;;1.30;;
34984;SDS011;21190;58.750;17.004;2023-11-18T10:07:54;3.22;;;1.17;;
34984;SDS011;21190;58.750;17.004;2023-11-18T10:10:21;2.47;;;1.08;;
34984;SDS011;21190;58.750;17.004;2023-11-18T10:12:49;2.35;;;1.10;;
34984;SDS011;21190;58.750;17.004;2023-11-18T10:15:20;2.17;;;0.80;;
34984;SDS011;21190;58.750;17.004;2023-11-18T10:17:52;2.22;;;0.93;;
34984;SDS011;21190;58.750;17.004;2023-11-18T10:20:42;2.67;;;1.10;;
34984;SDS011;21190;58.750;17.004;2023-11-18T10:23:14;1.98;;;1.17;;
34984;SDS011;21190;58.750;17.004;2023-11-18T10:25:54;1.65;;;0.95;;
34984;SDS011;21190;58.750;17.004;2023-11-18T10:28:36;2.03;;;1.08;;
34984;SDS011;21190;58.750;17.004;2023-11-18T10:31:05;3.40;;;1.17;;
34984;SDS011;21190;58.750;17.004;2023-11-18T10:33:39;1.80;;;0.98;;
34984;SDS011;21190;58.750;17.004;2023-11-18T10:36:19;0.88;;;0.60;;
34984;SDS011;21190;58.750;17.004;2023-11-18T10:38:50;2.40;;;1.17;;
34984;SDS011;21190;58.750;17.004;2023-11-18T10:41:23;3.50;;;0.80;;
34984;SDS011;21190;58.750;17.004;2023-11-18T10:43:52;1.88;;;1.02;;
34984;SDS011;21190;58.750;17.004;2023-11-18T10:46:41;2.35;;;1.05;;
34984;SDS011;21190;58.750;17.004;2023-11-18T10:49:17;2.55;;;1.27;;
34984;SDS011;21190;58.750;17.004;2023-11-18T10:51:43;2.05;;;1.00;;
34984;SDS011;21190;58.750;17.004;2023-11-18T10:54:13;2.17;;;0.98;;
34984;SDS011;21190;58.750;17.004;2023-11-18T10:56:47;3.55;;;1.38;;
34984;SDS011;21190;58.750;17.004;2023-11-18T10:59:15;2.42;;;1.05;;
34984;SDS011;21190;58.750;17.004;2023-11-18T11:01:43;5.88;;;1.70;;
34984;SDS011;21190;58.750;17.004;2023-11-18T11:04:11;1.67;;;0.80;;
34984;SDS011;21190;58.750;17.004;2023-11-18T11:06:42;1.73;;;0.98;;
34984;SDS011;21190;58.750;17.004;2023-11-18T11:09:12;2.55;;;0.90;;
34984;SDS011;21190;58.750;17.004;2023-11-18T11:11:53;2.03;;;0.80;;
34984;SDS011;21190;58.750;17.004;2023-11-18T11:14:33;1.45;;;1.10;;
34984;SDS011;21190;58.750;17.004;2023-11-18T11:17:08;1.80;;;1.00;;
34984;SDS011;21190;58.750;17.004;2023-11-18T11:19:50;2.55;;;1.00;;
34984;SDS011;21190;58.750;17.004;2023-11-18T11:22:24;1.42;;;0.77;;
34984;SDS011;21190;58.750;17.004;2023-11-18T11:25:20;1.42;;;0.80;;
34984;SDS011;21190;58.750;17.004;2023-11-18T11:28:03;5.97;;;1.13;;
34984;SDS011;21190;58.750;17.004;2023-11-18T11:30:42;1.88;;;0.95;;
34984;SDS011;21190;58.750;17.004;2023-11-18T11:35:59;1.65;;;0.80;;
34984;SDS011;21190;58.750;17.004;2023-11-18T11:38:28;2.05;;;0.80;;
34984;SDS011;21190;58.750;17.004;2023-11-18T11:40:56;1.27;;;1.00;;
34984;SDS011;21190;58.750;17.004;2023-11-18T11:43:28;3.08;;;0.98;;
34984;SDS011;21190;58.750;17.004;2023-11-18T11:45:56;4.55;;;1.30;;
34984;SDS011;21190;58.750;17.004;2023-11-18T11:48:23;1.63;;;0.88;;
34984;SDS011;21190;58.750;17.004;2023-11-18T11:53:47;2.08;;;0.90;;
34984;SDS011;21190;58.750;17.004;2023-11-18T11:56:20;1.25;;;0.90;;
34984;SDS011;21190;58.750;17.004;2023-11-18T11:58:51;2.55;;;0.80;;
34984;SDS011;21190;58.750;17.004;2023-11-18T12:01:27;1.30;;;0.90;;
34984;SDS011;21190;58.750;17.004;2023-11-18T12:04:04;1.63;;;0.82;;
34984;SDS011;21190;58.750;17.004;2023-11-18T12:06:40;3.30;;;1.58;;
34984;SDS011;21190;58.750;17.004;2023-11-18T12:09:08;1.35;;;0.88;;
34984;SDS011;21190;58.750;17.004;2023-11-18T12:11:36;1.90;;;0.80;;
34984;SDS011;21190;58.750;17.004;2023-11-18T12:14:08;1.95;;;1.13;;
34984;SDS011;21190;58.750;17.004;2023-11-18T12:16:57;3.67;;;1.23;;
34984;SDS011;21190;58.750;17.004;2023-11-18T12:19:38;3.08;;;1.15;;
34984;SDS011;21190;58.750;17.004;2023-11-18T12:22:14;2.28;;;0.98;;
34984;SDS011;21190;58.750;17.004;2023-11-18T12:24:45;4.25;;;1.10;;
34984;SDS011;21190;58.750;17.004;2023-11-18T12:35:48;2.47;;;1.17;;
34984;SDS011;21190;58.750;17.004;2023-11-18T12:41:36;2.30;;;1.08;;
34984;SDS011;21190;58.750;17.004;2023-11-18T12:46:50;2.05;;;0.95;;
34984;SDS011;21190;58.750;17.004;2023-11-18T12:49:24;2.35;;;0.80;;
34984;SDS011;21190;58.750;17.004;2023-11-18T12:51:52;5.18;;;1.50;;
34984;SDS011;21190;58.750;17.004;2023-11-18T12:54:25;2.35;;;1.20;;
34984;SDS011;21190;58.750;17.004;2023-11-18T12:56:55;2.40;;;1.20;;
34984;SDS011;21190;58.750;17.004;2023-11-18T12:59:23;7.55;;;1.40;;
34984;SDS011;21190;58.750;17.004;2023-11-18T13:01:50;1.38;;;0.90;;
34984;SDS011;21190;58.750;17.004;2023-11-18T13:04:24;2.88;;;1.10;;
34984;SDS011;21190;58.750;17.004;2023-11-18T13:06:52;1.63;;;0.98;;
34984;SDS011;21190;58.750;17.004;2023-11-18T13:09:21;3.38;;;1.50;;
34984;SDS011;21190;58.750;17.004;2023-11-18T13:11:55;3.33;;;1.98;;
34984;SDS011;21190;58.750;17.004;2023-11-18T13:14:27;1.58;;;1.13;;
34984;SDS011;21190;58.750;17.004;2023-11-18T13:16:56;6.15;;;2.38;;
34984;SDS011;21190;58.750;17.004;2023-11-18T13:19:25;7.95;;;3.50;;
34984;SDS011;21190;58.750;17.004;2023-11-18T13:22:00;3.38;;;1.98;;
34984;SDS011;21190;58.750;17.004;2023-11-18T13:24:35;5.10;;;1.38;;
34984;SDS011;21190;58.750;17.004;2023-11-18T13:27:06;1.48;;;1.00;;
34984;SDS011;21190;58.750;17.004;2023-11-18T13:29:35;2.67;;;1.10;;
34984;SDS011;21190;58.750;17.004;2023-11-18T13:32:06;5.95;;;1.17;;
34984;SDS011;21190;58.750;17.004;2023-11-18T13:34:33;3.55;;;0.95;;
34984;SDS011;21190;58.750;17.004;2023-11-18T13:37:09;3.60;;;1.98;;
34984;SDS011;21190;58.750;17.004;2023-11-18T13:39:55;1.95;;;1.10;;
34984;SDS011;21190;58.750;17.004;2023-11-18T13:42:26;5.03;;;1.90;;
34984;SDS011;21190;58.750;17.004;2023-11-18T13:45:04;1.63;;;1.08;;
34984;SDS011;21190;58.750;17.004;2023-11-18T13:47:35;2.15;;;1.50;;
34984;SDS011;21190;58.750;17.004;2023-11-18T13:50:06;1.67;;;1.02;;
34984;SDS011;21190;58.750;17.004;2023-11-18T13:52:35;4.43;;;1.25;;
34984;SDS011;21190;58.750;17.004;2023-11-18T13:55:06;7.03;;;1.48;;
34984;SDS011;21190;58.750;17.004;2023-11-18T13:57:33;2.85;;;1.80;;
34984;SDS011;21190;58.750;17.004;2023-11-18T14:00:01;2.17;;;1.35;;
34984;SDS011;21190;58.750;17.004;2023-11-18T14:02:29;2.72;;;1.20;;
34984;SDS011;21190;58.750;17.004;2023-11-18T14:04:56;1.23;;;1.00;;
34984;SDS011;21190;58.750;17.004;2023-11-18T14:07:23;2.83;;;1.10;;
34984;SDS011;21190;58.750;17.004;2023-11-18T14:09:50;2.33;;;1.10;;
34984;SDS011;21190;58.750;17.004;2023-11-18T14:12:20;1.83;;;1.30;;
34984;SDS011;21190;58.750;17.004;2023-11-18T14:14:48;3.00;;;1.40;;
34984;SDS011;21190;58.750;17.004;2023-11-18T14:17:16;2.13;;;1.20;;
34984;SDS011;21190;58.750;17.004;2023-11-18T14:19:43;1.63;;;1.00;;
34984;SDS011;21190;58.750;17.004;2023-11-18T14:22:10;2.00;;;1.08;;
34984;SDS011;21190;58.750;17.004;2023-11-18T14:24:37;1.33;;;1.02;;
34984;SDS011;21190;58.750;17.004;2023-11-18T14:27:04;1.55;;;1.00;;
34984;SDS011;21190;58.750;17.004;2023-11-18T14:29:34;2.10;;;1.20;;
34984;SDS011;21190;58.750;17.004;2023-11-18T14:32:03;3.08;;;1.17;;
34984;SDS011;21190;58.750;17.004;2023-11-18T14:34:30;2.30;;;1.35;;
34984;SDS011;21190;58.750;17.004;2023-11-18T14:36:57;4.72;;;1.30;;
34984;SDS011;21190;58.750;17.004;2023-11-18T14:39:24;4.20;;;1.67;;
34984;SDS011;21190;58.750;17.004;2023-11-18T14:41:52;1.50;;;1.00;;
34984;SDS011;21190;58.750;17.004;2023-11-18T14:44:20;2.05;;;1.33;;
34984;SDS011;21190;58.750;17.004;2023-11-18T14:46:47;1.10;;;0.90;;
34984;SDS011;21190;58.750;17.004;2023-11-18T14:49:14;5.10;;;1.52;;
34984;SDS011;21190;58.750;17.004;2023-11-18T14:51:41;2.97;;;1.23;;
34984;SDS011;21190;58.750;17.004;2023-11-18T14:54:09;3.75;;;1.92;;
34984;SDS011;21190;58.750;17.004;2023-11-18T14:56:36;2.85;;;1.50;;
34984;SDS011;21190;58.750;17.004;2023-11-18T14:59:03;3.70;;;1.20;;
34984;SDS011;21190;58.750;17.004;2023-11-18T15:01:32;7.07;;;1.88;;
34984;SDS011;21190;58.750;17.004;2023-11-18T15:03:59;2.55;;;1.38;;
34984;SDS011;21190;58.750;17.004;2023-11-18T15:06:28;3.08;;;1.70;;
34984;SDS011;21190;58.750;17.004;2023-11-18T15:08:55;6.18;;;1.48;;
34984;SDS011;21190;58.750;17.004;2023-11-18T15:11:23;2.45;;;1.40;;
34984;SDS011;21190;58.750;17.004;2023-11-18T15:13:51;6.43;;;1.58;;
34984;SDS011;21190;58.750;17.004;2023-11-18T15:16:20;2.03;;;1.30;;
34984;SDS011;21190;58.750;17.004;2023-11-18T15:18:47;1.73;;;1.35;;
34984;SDS011;21190;58.750;17.004;2023-11-18T15:21:18;2.55;;;1.17;;